createdAt,value
2022-09-27T00:00:39.038Z,9.00
2022-09-27T00:03:05.924Z,9.00
2022-09-27T00:05:32.715Z,8.90
2022-09-27T00:07:59.433Z,8.90
2022-09-27T00:10:26.203Z,9.00
2022-09-27T00:12:53.178Z,9.00
2022-09-27T00:15:21.142Z,9.10
2022-09-27T00:17:51.895Z,9.10
2022-09-27T00:20:20.762Z,9.00
2022-09-27T00:22:50.549Z,9.10
2022-09-27T00:25:17.616Z,9.10
2022-09-27T00:27:44.783Z,9.10
2022-09-27T00:30:12.519Z,9.20
2022-09-27T00:32:39.608Z,9.10
2022-09-27T00:35:08.516Z,9.10
2022-09-27T00:37:35.331Z,9.20
2022-09-27T00:40:02.297Z,9.20
2022-09-27T00:42:29.034Z,9.20
2022-09-27T00:45:02.316Z,9.20
2022-09-27T00:47:47.401Z,9.20
2022-09-27T00:50:20.598Z,9.30
2022-09-27T00:53:08.941Z,9.30
2022-09-27T00:55:44.240Z,9.30
2022-09-27T00:58:13.258Z,9.40
2022-09-27T01:00:45.612Z,9.30
2022-09-27T01:03:19.889Z,9.30
2022-09-27T01:05:46.761Z,9.30
2022-09-27T01:08:13.464Z,9.30
2022-09-27T01:10:57.621Z,9.30
2022-09-27T01:13:35.207Z,9.40
2022-09-27T01:16:14.943Z,9.30
2022-09-27T01:18:59.025Z,9.30
2022-09-27T01:21:49.601Z,9.20
2022-09-27T01:24:54.314Z,9.20
2022-09-27T01:27:32.940Z,9.20
2022-09-27T01:30:14.909Z,9.20
2022-09-27T01:33:14.018Z,9.10
2022-09-27T01:35:50.946Z,9.10
2022-09-27T01:38:38.548Z,9.00
2022-09-27T01:41:26.483Z,9.00
2022-09-27T01:44:29.723Z,9.00
2022-09-27T01:47:14.821Z,8.90
2022-09-27T01:50:02.253Z,8.90
2022-09-27T01:52:48.357Z,8.90
2022-09-27T01:55:19.562Z,8.90
2022-09-27T01:58:22.505Z,8.90
2022-09-27T02:00:53.936Z,8.80
2022-09-27T02:03:25.960Z,8.80
2022-09-27T02:06:28.110Z,8.80
2022-09-27T02:09:08.465Z,8.70
2022-09-27T02:11:57.131Z,8.70
2022-09-27T02:14:35.606Z,8.60
2022-09-27T02:17:23.234Z,8.50
2022-09-27T02:20:12.811Z,8.50
2022-09-27T02:22:51.773Z,8.50
2022-09-27T02:25:26.643Z,8.50
2022-09-27T02:28:40.012Z,8.40
2022-09-27T02:31:09.261Z,8.40
2022-09-27T02:33:44.968Z,8.40
2022-09-27T02:36:12.654Z,8.40
2022-09-27T02:38:41.172Z,8.40
2022-09-27T02:41:14.615Z,8.50
2022-09-27T02:43:43.181Z,8.50
2022-09-27T02:46:33.032Z,8.50
2022-09-27T02:49:38.133Z,8.50
2022-09-27T02:52:40.345Z,8.50
2022-09-27T02:55:37.230Z,8.50
2022-09-27T02:58:54.374Z,8.60
2022-09-27T03:02:10.980Z,8.50
2022-09-27T03:04:59.643Z,8.50
2022-09-27T03:07:26.903Z,8.50
2022-09-27T03:09:54.563Z,8.50
2022-09-27T03:12:28.118Z,8.40
2022-09-27T03:15:00.150Z,8.50
2022-09-27T03:18:00.173Z,8.50
2022-09-27T03:20:42.159Z,8.40
2022-09-27T03:23:14.310Z,8.40
2022-09-27T03:25:41.661Z,8.40
2022-09-27T03:28:09.461Z,8.40
2022-09-27T03:30:37.729Z,8.30
2022-09-27T03:33:04.832Z,8.30
2022-09-27T03:35:34.467Z,8.30
2022-09-27T03:38:01.894Z,8.40
2022-09-27T03:40:28.823Z,8.40
2022-09-27T03:42:55.991Z,8.30
2022-09-27T03:45:22.849Z,8.40
2022-09-27T03:47:50.349Z,8.40
2022-09-27T03:50:17.319Z,8.30
2022-09-27T03:52:44.537Z,8.40
2022-09-27T03:55:12.644Z,8.40
2022-09-27T03:57:40.227Z,8.50
2022-09-27T04:00:09.435Z,8.50
2022-09-27T04:02:39.012Z,8.50
2022-09-27T04:05:20.810Z,8.50
2022-09-27T04:07:49.437Z,8.40
2022-09-27T04:10:17.843Z,8.50
2022-09-27T04:12:45.237Z,8.50
2022-09-27T04:15:12.426Z,8.50
2022-09-27T04:17:51.700Z,8.10
2022-09-27T04:20:38.726Z,7.90
2022-09-27T04:23:11.572Z,7.50
2022-09-27T04:25:41.951Z,7.20
2022-09-27T04:28:17.623Z,6.80
2022-09-27T04:30:46.642Z,6.60
2022-09-27T04:33:13.755Z,6.60
2022-09-27T04:36:02.083Z,6.50
2022-09-27T04:38:29.319Z,6.60
2022-09-27T04:40:56.315Z,6.60
2022-09-27T04:43:23.842Z,6.70
2022-09-27T04:45:50.699Z,6.80
2022-09-27T04:48:17.626Z,7.00
2022-09-27T04:50:44.549Z,7.00
2022-09-27T04:53:14.679Z,7.10
2022-09-27T04:55:46.477Z,7.10
2022-09-27T04:58:13.332Z,7.10
2022-09-27T05:00:41.983Z,7.10
2022-09-27T05:03:28.678Z,7.20
2022-09-27T05:05:59.157Z,7.30
2022-09-27T05:08:26.182Z,7.30
2022-09-27T05:11:13.151Z,7.30
2022-09-27T05:13:41.536Z,7.40
2022-09-27T05:16:08.582Z,7.40
2022-09-27T05:18:58.567Z,7.40
2022-09-27T05:21:43.776Z,7.40
2022-09-27T05:24:10.547Z,7.40
2022-09-27T05:26:37.528Z,7.50
2022-09-27T05:29:04.634Z,7.50
2022-09-27T05:31:31.435Z,7.50
2022-09-27T05:33:58.427Z,7.40
2022-09-27T05:36:33.830Z,7.40
2022-09-27T05:39:00.891Z,7.40
2022-09-27T05:41:28.346Z,7.30
2022-09-27T05:43:55.726Z,7.40
2022-09-27T05:46:22.547Z,7.40
2022-09-27T05:48:49.400Z,7.40
2022-09-27T05:51:16.340Z,7.30
2022-09-27T05:53:43.563Z,7.30
2022-09-27T05:56:18.704Z,7.20
2022-09-27T05:59:05.805Z,7.20
2022-09-27T06:01:53.364Z,7.20
2022-09-27T06:04:38.765Z,7.30
2022-09-27T06:07:37.984Z,7.20
2022-09-27T06:10:08.519Z,7.30
2022-09-27T06:12:35.619Z,7.30
2022-09-27T06:15:05.885Z,7.30
2022-09-27T06:17:38.029Z,7.30
2022-09-27T06:20:14.477Z,7.20
2022-09-27T06:22:41.617Z,7.30
2022-09-27T06:25:09.710Z,7.40
2022-09-27T06:27:47.829Z,7.50
2022-09-27T06:30:22.664Z,7.50
2022-09-27T06:33:13.193Z,7.60
2022-09-27T06:35:42.545Z,7.60
2022-09-27T06:38:12.336Z,7.60
2022-09-27T06:40:47.262Z,7.70
2022-09-27T06:43:22.094Z,7.80
2022-09-27T06:46:09.177Z,7.80
2022-09-27T06:48:48.872Z,7.80
2022-09-27T06:51:17.164Z,7.90
2022-09-27T06:53:43.883Z,7.90
2022-09-27T06:56:10.832Z,7.90
2022-09-27T06:59:04.486Z,7.90
2022-09-27T07:01:44.388Z,8.00
2022-09-27T07:04:39.190Z,8.00
2022-09-27T07:07:06.215Z,7.90
2022-09-27T07:09:40.774Z,8.00
2022-09-27T07:12:07.879Z,8.00
2022-09-27T07:14:35.253Z,8.10
2022-09-27T07:17:03.421Z,8.10
2022-09-27T07:19:36.180Z,8.10
2022-09-27T07:22:03.050Z,8.10
2022-09-27T07:24:30.328Z,8.20
2022-09-27T07:26:57.237Z,8.00
2022-09-27T07:29:24.420Z,8.00
2022-09-27T07:31:53.295Z,8.00
2022-09-27T07:34:20.094Z,8.20
2022-09-27T07:36:46.867Z,8.30
2022-09-27T07:39:14.327Z,8.40
2022-09-27T07:41:43.826Z,8.50
2022-09-27T07:44:13.145Z,8.50
2022-09-27T07:46:52.892Z,8.60
2022-09-27T07:49:24.491Z,8.70
2022-09-27T07:52:04.798Z,8.70
2022-09-27T07:54:51.631Z,8.40
2022-09-27T07:57:36.035Z,8.20
2022-09-27T08:00:07.321Z,8.10
2022-09-27T08:02:40.230Z,8.10
2022-09-27T08:05:08.193Z,8.20
2022-09-27T08:07:36.085Z,8.30
2022-09-27T08:10:03.619Z,8.30
2022-09-27T08:12:30.798Z,8.30
2022-09-27T08:15:01.345Z,8.50
2022-09-27T08:17:28.835Z,8.50
2022-09-27T08:20:08.117Z,8.50
2022-09-27T08:22:56.841Z,8.50
2022-09-27T08:25:28.416Z,8.50
2022-09-27T08:28:23.287Z,8.50
2022-09-27T08:30:59.395Z,8.50
2022-09-27T08:33:31.993Z,8.60
2022-09-27T08:36:01.738Z,8.70
2022-09-27T08:38:29.090Z,8.70
2022-09-27T08:41:12.505Z,8.70
2022-09-27T08:44:04.602Z,8.80
2022-09-27T08:46:45.955Z,8.80
2022-09-27T08:49:40.196Z,9.00
2022-09-27T08:52:13.272Z,9.10
2022-09-27T08:54:40.533Z,9.20
2022-09-27T08:57:16.941Z,9.20
2022-09-27T08:59:58.622Z,9.20
2022-09-27T09:02:26.416Z,9.20
2022-09-27T09:05:14.780Z,9.30
2022-09-27T09:08:08.472Z,9.20
2022-09-27T09:11:15.621Z,9.10
2022-09-27T09:14:04.613Z,9.10
2022-09-27T09:16:48.426Z,9.20
2022-09-27T09:19:21.910Z,9.20
2022-09-27T09:22:18.561Z,9.20
2022-09-27T09:24:52.024Z,9.10
2022-09-27T09:27:43.784Z,9.00
2022-09-27T09:30:19.690Z,8.70
2022-09-27T09:33:19.804Z,8.70
2022-09-27T09:35:58.311Z,8.90
2022-09-27T09:38:58.672Z,8.80
2022-09-27T09:41:50.287Z,8.80
2022-09-27T09:44:23.467Z,9.00
2022-09-27T09:46:53.795Z,9.10
2022-09-27T09:49:26.841Z,9.30
2022-09-27T09:51:59.638Z,9.40
2022-09-27T09:54:38.925Z,9.50
2022-09-27T09:57:28.757Z,9.70
2022-09-27T10:00:15.406Z,9.90
2022-09-27T10:02:49.928Z,10.10
2022-09-27T10:05:23.282Z,10.60
2022-09-27T10:08:00.090Z,10.90
2022-09-27T10:10:27.560Z,11.10
2022-09-27T10:13:19.916Z,11.20
2022-09-27T10:16:12.387Z,11.00
2022-09-27T10:18:45.119Z,10.70
2022-09-27T10:21:22.258Z,10.80
2022-09-27T10:24:13.523Z,11.00
2022-09-27T10:27:08.064Z,10.60
2022-09-27T10:29:38.964Z,10.40
2022-09-27T10:32:23.131Z,10.30
2022-09-27T10:34:52.998Z,10.30
2022-09-27T10:37:22.458Z,10.50
2022-09-27T10:40:30.665Z,10.70
2022-09-27T10:42:59.481Z,10.70
2022-09-27T10:45:41.581Z,10.60
2022-09-27T10:48:23.412Z,10.50
2022-09-27T10:51:06.630Z,10.20
2022-09-27T10:53:45.766Z,10.00
2022-09-27T10:56:27.818Z,9.80
2022-09-27T10:58:56.089Z,9.70
2022-09-27T11:01:25.675Z,10.00
2022-09-27T11:04:22.307Z,10.00
2022-09-27T11:06:49.243Z,10.00
2022-09-27T11:09:27.209Z,10.00
2022-09-27T11:12:13.268Z,9.90
2022-09-27T11:14:42.098Z,9.90
2022-09-27T11:17:27.590Z,9.90
2022-09-27T11:20:16.110Z,9.90
2022-09-27T11:23:27.879Z,10.00
2022-09-27T11:26:23.735Z,10.30
2022-09-27T11:29:09.349Z,10.20
2022-09-27T11:32:24.437Z,10.40
2022-09-27T11:35:21.584Z,10.30
2022-09-27T11:38:34.692Z,10.50
2022-09-27T11:41:30.208Z,10.70
2022-09-27T11:44:17.782Z,10.40
2022-09-27T11:47:17.231Z,10.20
2022-09-27T11:50:20.137Z,10.00
2022-09-27T11:52:49.870Z,9.90
2022-09-27T11:55:33.714Z,9.90
2022-09-27T11:58:29.711Z,10.00
2022-09-27T12:01:14.175Z,10.00
2022-09-27T12:04:17.180Z,9.80
2022-09-27T12:07:00.143Z,9.60
2022-09-27T12:09:34.361Z,9.60
2022-09-27T12:12:13.156Z,9.50
2022-09-27T12:14:45.343Z,9.40
2022-09-27T12:17:21.262Z,9.30
2022-09-27T12:19:53.756Z,9.20
2022-09-27T12:22:58.054Z,9.10
2022-09-27T12:25:38.502Z,9.20
2022-09-27T12:28:51.059Z,9.10
2022-09-27T12:31:34.319Z,8.90
2022-09-27T12:34:28.925Z,8.90
2022-09-27T12:37:25.270Z,8.90
2022-09-27T12:40:16.224Z,9.10
2022-09-27T12:43:14.037Z,9.40
2022-09-27T12:46:16.090Z,9.50
2022-09-27T12:48:50.282Z,9.90
2022-09-27T12:51:24.485Z,10.20
2022-09-27T12:54:21.534Z,10.50
2022-09-27T12:56:58.060Z,10.50
2022-09-27T12:59:47.880Z,10.50
2022-09-27T13:02:26.652Z,10.50
2022-09-27T13:05:22.504Z,10.70
2022-09-27T13:08:22.352Z,10.60
2022-09-27T13:10:58.327Z,10.40
2022-09-27T13:13:36.243Z,10.20
2022-09-27T13:16:06.268Z,10.00
2022-09-27T13:18:53.928Z,10.10
2022-09-27T13:21:47.465Z,10.00
2022-09-27T13:24:43.097Z,10.10
2022-09-27T13:27:40.574Z,10.10
2022-09-27T13:30:13.000Z,10.20
2022-09-27T13:33:14.055Z,10.30
2022-09-27T13:36:22.378Z,10.20
2022-09-27T13:39:14.231Z,10.20
2022-09-27T13:42:10.999Z,10.20
2022-09-27T13:44:49.745Z,10.30
2022-09-27T13:47:38.308Z,10.20
2022-09-27T13:50:15.168Z,10.20
2022-09-27T13:53:18.194Z,10.20
2022-09-27T13:55:47.063Z,10.20
2022-09-27T13:58:19.355Z,10.20
2022-09-27T14:01:00.069Z,9.90
2022-09-27T14:03:37.895Z,9.80
2022-09-27T14:06:09.066Z,9.70
2022-09-27T14:08:51.979Z,9.40
2022-09-27T14:11:27.637Z,9.10
2022-09-27T14:13:56.059Z,8.30
2022-09-27T14:16:30.108Z,8.00
2022-09-27T14:18:59.552Z,7.80
2022-09-27T14:21:45.248Z,7.70
2022-09-27T14:24:28.944Z,7.70
2022-09-27T14:27:11.200Z,7.80
2022-09-27T14:29:46.678Z,8.00
2022-09-27T14:32:18.837Z,8.30
2022-09-27T14:35:33.013Z,8.40
2022-09-27T14:38:37.784Z,8.70
2022-09-27T14:41:16.358Z,8.80
2022-09-27T14:43:45.673Z,8.80
2022-09-27T14:46:32.297Z,8.80
2022-09-27T14:48:59.672Z,8.70
2022-09-27T14:51:29.691Z,8.60
2022-09-27T14:54:01.119Z,8.60
2022-09-27T14:56:30.343Z,8.50
2022-09-27T14:59:11.378Z,8.40
2022-09-27T15:01:40.076Z,8.40
2022-09-27T15:04:13.845Z,8.40
2022-09-27T15:06:41.009Z,8.40
2022-09-27T15:09:10.310Z,8.30
2022-09-27T15:11:39.307Z,8.30
2022-09-27T15:14:07.132Z,8.40
2022-09-27T15:16:34.715Z,8.50
2022-09-27T15:19:26.898Z,8.60
2022-09-27T15:21:53.955Z,8.70
2022-09-27T15:24:40.674Z,8.70
2022-09-27T15:27:21.612Z,8.70
2022-09-27T15:29:53.951Z,8.80
2022-09-27T15:32:24.042Z,8.80
2022-09-27T15:34:51.282Z,8.80
2022-09-27T15:37:38.502Z,8.80
2022-09-27T15:40:21.097Z,8.80
2022-09-27T15:42:59.589Z,8.90
2022-09-27T15:45:36.096Z,8.90
2022-09-27T15:48:18.394Z,8.90
2022-09-27T15:50:46.921Z,8.90
2022-09-27T15:53:36.566Z,8.70
2022-09-27T15:56:06.561Z,8.70
2022-09-27T15:58:35.751Z,8.70
2022-09-27T16:01:05.856Z,8.70
2022-09-27T16:03:33.124Z,8.70
2022-09-27T16:06:02.287Z,8.60
2022-09-27T16:08:29.726Z,8.60
2022-09-27T16:10:58.995Z,8.70
2022-09-27T16:13:32.456Z,8.70
2022-09-27T16:16:01.655Z,8.70
2022-09-27T16:18:30.833Z,8.70
2022-09-27T16:20:58.906Z,8.70
2022-09-27T16:23:25.840Z,8.70
2022-09-27T16:25:53.618Z,8.70
2022-09-27T16:28:20.678Z,8.70
2022-09-27T16:30:48.122Z,8.80
2022-09-27T16:33:15.108Z,8.80
2022-09-27T16:35:41.920Z,8.80
2022-09-27T16:38:08.683Z,8.80
2022-09-27T16:40:36.816Z,8.80
2022-09-27T16:43:07.747Z,8.70
2022-09-27T16:45:36.586Z,8.70
2022-09-27T16:48:03.932Z,8.60
2022-09-27T16:50:49.539Z,8.40
2022-09-27T16:53:16.429Z,8.40
2022-09-27T16:55:43.266Z,8.40
2022-09-27T16:58:10.041Z,8.40
2022-09-27T17:00:37.194Z,8.50
2022-09-27T17:03:04.206Z,8.50
2022-09-27T17:05:31.808Z,8.40
2022-09-27T17:07:58.767Z,8.20
2022-09-27T17:10:25.586Z,8.00
2022-09-27T17:12:52.489Z,7.80
2022-09-27T17:15:19.419Z,7.70
2022-09-27T17:17:49.323Z,7.60
2022-09-27T17:20:16.791Z,7.60
2022-09-27T17:22:43.488Z,7.50
2022-09-27T17:25:10.264Z,7.50
2022-09-27T17:27:37.038Z,7.40
2022-09-27T17:30:04.687Z,7.40
2022-09-27T17:32:31.431Z,7.50
2022-09-27T17:34:58.879Z,7.50
2022-09-27T17:37:25.719Z,7.60
2022-09-27T17:39:52.676Z,7.60
2022-09-27T17:42:19.368Z,7.60
2022-09-27T17:44:46.502Z,7.60
2022-09-27T17:47:32.115Z,7.60
2022-09-27T17:50:17.563Z,7.60
2022-09-27T17:52:44.622Z,7.70
2022-09-27T17:55:11.486Z,7.80
2022-09-27T17:57:38.660Z,7.80
2022-09-27T18:00:06.272Z,7.80
2022-09-27T18:02:39.927Z,7.80
2022-09-27T18:05:07.228Z,7.70
2022-09-27T18:07:34.685Z,7.70
2022-09-27T18:10:01.474Z,7.70
2022-09-27T18:12:31.964Z,7.70
2022-09-27T18:14:59.088Z,7.70
2022-09-27T18:17:27.778Z,7.80
2022-09-27T18:19:57.006Z,7.80
2022-09-27T18:22:29.391Z,7.80
2022-09-27T18:24:56.128Z,7.80
2022-09-27T18:27:22.849Z,7.80
2022-09-27T18:29:49.622Z,7.80
2022-09-27T18:32:16.411Z,7.90
2022-09-27T18:34:43.300Z,7.90
2022-09-27T18:37:10.093Z,7.90
2022-09-27T18:39:36.853Z,8.00
2022-09-27T18:42:03.795Z,8.00
2022-09-27T18:44:30.549Z,8.00
2022-09-27T18:46:58.760Z,8.00
2022-09-27T18:49:33.029Z,8.00
2022-09-27T18:52:00.947Z,8.00
2022-09-27T18:54:27.704Z,8.00
2022-09-27T18:56:54.593Z,8.00
2022-09-27T18:59:23.555Z,8.00
2022-09-27T19:01:50.914Z,8.00
2022-09-27T19:04:24.265Z,7.90
2022-09-27T19:06:52.672Z,7.80
2022-09-27T19:09:19.870Z,7.80
2022-09-27T19:11:46.892Z,7.60
2022-09-27T19:14:23.503Z,7.70
2022-09-27T19:16:50.918Z,7.80
2022-09-27T19:19:19.487Z,7.80
2022-09-27T19:21:46.892Z,7.90
2022-09-27T19:24:14.309Z,7.90
2022-09-27T19:26:41.077Z,7.80
2022-09-27T19:29:07.928Z,7.90
2022-09-27T19:31:35.904Z,7.90
2022-09-27T19:34:03.080Z,7.80
2022-09-27T19:36:30.019Z,7.90
2022-09-27T19:38:59.905Z,8.00
2022-09-27T19:41:27.030Z,7.90
2022-09-27T19:43:55.377Z,7.90
2022-09-27T19:46:23.721Z,7.90
2022-09-27T19:48:52.213Z,8.00
2022-09-27T19:51:24.823Z,7.80
2022-09-27T19:53:52.812Z,7.90
2022-09-27T19:56:20.728Z,7.90
2022-09-27T19:58:47.542Z,7.70
2022-09-27T20:01:22.769Z,7.60
2022-09-27T20:03:51.761Z,7.60
2022-09-27T20:06:19.938Z,7.70
2022-09-27T20:08:48.072Z,7.60
2022-09-27T20:11:20.167Z,7.60
2022-09-27T20:13:48.071Z,7.60
2022-09-27T20:16:17.643Z,7.70
2022-09-27T20:18:49.646Z,7.80
2022-09-27T20:21:17.736Z,7.80
2022-09-27T20:23:47.737Z,7.80
2022-09-27T20:26:16.473Z,7.60
2022-09-27T20:28:45.341Z,7.60
2022-09-27T20:31:14.645Z,7.60
2022-09-27T20:33:41.829Z,7.70
2022-09-27T20:36:13.862Z,7.90
2022-09-27T20:38:42.484Z,7.80
2022-09-27T20:41:10.547Z,7.90
2022-09-27T20:43:38.307Z,8.00
2022-09-27T20:46:07.655Z,8.10
2022-09-27T20:48:35.691Z,8.10
2022-09-27T20:51:04.943Z,8.10
2022-09-27T20:53:32.575Z,8.00
2022-09-27T20:56:02.738Z,8.10
2022-09-27T20:58:31.401Z,8.10
2022-09-27T21:01:05.710Z,8.10
2022-09-27T21:03:32.884Z,8.00
2022-09-27T21:05:59.719Z,7.90
2022-09-27T21:08:30.748Z,7.80
2022-09-27T21:11:04.648Z,7.80
2022-09-27T21:13:31.897Z,7.70
2022-09-27T21:16:06.848Z,7.70
2022-09-27T21:18:34.835Z,7.70
2022-09-27T21:21:09.637Z,7.70
2022-09-27T21:23:42.014Z,7.70
2022-09-27T21:26:13.540Z,7.80
2022-09-27T21:28:45.602Z,7.70
2022-09-27T21:31:20.193Z,7.80
2022-09-27T21:33:53.613Z,7.80
2022-09-27T21:36:24.430Z,7.80
2022-09-27T21:38:51.546Z,7.80
2022-09-27T21:41:18.971Z,7.80
2022-09-27T21:43:47.793Z,7.80
2022-09-27T21:46:16.443Z,7.80
2022-09-27T21:48:48.558Z,7.70
2022-09-27T21:51:18.138Z,7.70
2022-09-27T21:53:50.985Z,7.60
2022-09-27T21:56:18.295Z,7.80
2022-09-27T21:58:45.294Z,7.60
2022-09-27T22:01:15.261Z,7.60
2022-09-27T22:03:43.610Z,7.70
2022-09-27T22:06:12.748Z,7.80
2022-09-27T22:08:40.082Z,7.80
2022-09-27T22:11:07.384Z,7.90
2022-09-27T22:13:34.754Z,7.80
2022-09-27T22:16:10.751Z,7.80
2022-09-27T22:18:41.398Z,7.70
2022-09-27T22:21:11.701Z,7.70
2022-09-27T22:23:39.125Z,7.80
2022-09-27T22:26:24.364Z,7.90
2022-09-27T22:28:51.680Z,8.00
2022-09-27T22:31:20.528Z,7.90
2022-09-27T22:33:59.006Z,8.00
2022-09-27T22:36:27.672Z,7.90
2022-09-27T22:38:55.432Z,7.90
2022-09-27T22:41:23.298Z,8.00
2022-09-27T22:43:50.386Z,8.10
2022-09-27T22:46:17.344Z,8.10
2022-09-27T22:48:44.350Z,8.20
2022-09-27T22:51:11.216Z,8.20
2022-09-27T22:53:38.452Z,8.20
2022-09-27T22:56:08.380Z,8.20
2022-09-27T22:58:36.489Z,8.20
2022-09-27T23:01:13.258Z,8.20
2022-09-27T23:03:40.326Z,8.20
2022-09-27T23:06:07.539Z,8.30
2022-09-27T23:08:35.904Z,8.30
2022-09-27T23:11:08.718Z,8.30
2022-09-27T23:13:38.180Z,8.30
2022-09-27T23:16:07.603Z,8.20
2022-09-27T23:18:35.434Z,8.10
2022-09-27T23:21:06.914Z,8.10
2022-09-27T23:23:42.524Z,8.10
2022-09-27T23:26:11.658Z,8.10
2022-09-27T23:28:39.180Z,8.10
2022-09-27T23:31:13.588Z,8.10
2022-09-27T23:33:43.397Z,8.20
2022-09-27T23:36:14.963Z,8.10
2022-09-27T23:38:42.319Z,8.20
2022-09-27T23:41:09.374Z,8.20
2022-09-27T23:43:36.391Z,8.30
2022-09-27T23:46:07.752Z,8.30
2022-09-27T23:48:35.751Z,8.30
2022-09-27T23:51:04.729Z,8.40
2022-09-27T23:53:31.606Z,8.40
2022-09-27T23:56:02.897Z,8.40
2022-09-27T23:58:33.294Z,8.40
